createdAt,value
2023-02-07T00:44:54.347Z,9.32
2023-02-07T00:47:35.728Z,8.63
2023-02-07T01:01:16.731Z,8.77
2023-02-07T01:03:57.001Z,9.55
2023-02-07T01:23:28.013Z,9.00
2023-02-07T01:29:36.229Z,10.73
2023-02-07T02:12:16.328Z,13.15
2023-02-07T02:41:59.858Z,14.40
2023-02-07T08:25:15.939Z,21.55
2023-02-07T08:41:10.628Z,20.30
2023-02-07T10:29:01.214Z,14.77
2023-02-07T15:55:17.872Z,11.77
2023-02-07T15:57:44.939Z,11.55
2023-02-07T16:00:18.986Z,13.73
2023-02-07T16:02:55.545Z,12.70
2023-02-07T16:05:24.286Z,13.02
2023-02-07T16:07:54.802Z,11.20
2023-02-07T16:13:33.606Z,11.73
2023-02-07T16:16:07.425Z,11.27
2023-02-07T16:21:42.709Z,12.02
2023-02-07T16:24:13.831Z,11.50
2023-02-07T16:26:41.994Z,12.15
2023-02-07T16:29:08.571Z,13.82
2023-02-07T16:31:35.585Z,11.35
2023-02-07T16:34:02.183Z,12.63
2023-02-07T16:36:28.604Z,14.23
2023-02-07T16:38:54.951Z,14.60
2023-02-07T16:41:21.321Z,14.60
2023-02-07T16:43:47.729Z,16.02
2023-02-07T16:46:14.218Z,13.90
2023-02-07T16:48:40.885Z,17.85
2023-02-07T16:51:07.297Z,15.18
2023-02-07T16:53:33.903Z,13.68
2023-02-07T16:56:00.368Z,14.13
2023-02-07T16:58:30.677Z,16.02
2023-02-07T17:00:57.229Z,16.05
2023-02-07T17:03:24.031Z,14.23
2023-02-07T17:06:01.923Z,14.18
2023-02-07T17:08:30.269Z,15.35
2023-02-07T17:11:01.465Z,14.23
2023-02-07T17:13:28.289Z,15.48
2023-02-07T17:15:55.068Z,16.73
2023-02-07T17:18:31.067Z,16.83
2023-02-07T17:21:00.309Z,17.25
2023-02-07T17:23:32.788Z,16.40
2023-02-07T17:26:40.119Z,14.63
2023-02-07T23:31:25.807Z,25.60
